createdAt,value
2022-12-20T00:01:44.712Z,1.50
2022-12-20T00:04:14.605Z,1.60
2022-12-20T00:06:44.431Z,1.60
2022-12-20T00:09:14.761Z,1.60
2022-12-20T00:11:45.332Z,1.60
2022-12-20T00:14:15.078Z,1.60
2022-12-20T00:16:46.123Z,1.70
2022-12-20T00:19:15.934Z,1.60
2022-12-20T00:21:45.677Z,1.60
2022-12-20T00:24:19.304Z,1.50
2022-12-20T00:26:51.990Z,1.50
2022-12-20T00:29:21.859Z,1.50
2022-12-20T00:31:53.078Z,1.50
2022-12-20T00:34:22.653Z,1.50
2022-12-20T00:36:52.450Z,1.60
2022-12-20T00:39:22.329Z,1.60
2022-12-20T00:41:52.152Z,1.60
2022-12-20T00:44:21.884Z,1.60
2022-12-20T00:46:53.133Z,1.50
2022-12-20T00:49:22.774Z,1.50
2022-12-20T00:51:52.689Z,1.50
2022-12-20T00:54:22.480Z,1.50
2022-12-20T00:56:52.299Z,1.50
2022-12-20T00:59:22.200Z,1.50
2022-12-20T01:01:53.518Z,1.50
2022-12-20T01:04:23.664Z,1.50
2022-12-20T01:06:53.493Z,1.50
2022-12-20T01:09:23.327Z,1.50
2022-12-20T01:11:53.320Z,1.50
2022-12-20T01:14:23.231Z,1.50
2022-12-20T01:16:54.217Z,1.60
2022-12-20T01:19:24.198Z,1.60
2022-12-20T01:21:53.732Z,1.60
2022-12-20T01:24:24.150Z,1.60
2022-12-20T01:26:54.071Z,1.60
2022-12-20T01:29:24.179Z,1.60
2022-12-20T01:31:55.379Z,1.60
2022-12-20T01:34:25.088Z,1.60
2022-12-20T01:36:54.977Z,1.60
2022-12-20T01:39:24.933Z,1.60
2022-12-20T01:41:54.557Z,1.60
2022-12-20T01:44:53.560Z,1.60
2022-12-20T01:47:26.602Z,1.60
2022-12-20T01:49:57.725Z,1.70
2022-12-20T01:52:31.066Z,1.80
2022-12-20T01:55:09.819Z,1.80
2022-12-20T01:57:43.054Z,1.80
2022-12-20T02:00:14.877Z,1.90
2022-12-20T02:02:47.882Z,1.90
2022-12-20T02:05:20.653Z,1.90
2022-12-20T02:07:53.734Z,1.90
2022-12-20T02:10:28.881Z,2.00
2022-12-20T02:13:06.358Z,2.00
2022-12-20T02:15:45.848Z,2.00
2022-12-20T02:18:28.999Z,2.10
2022-12-20T02:21:29.152Z,2.00
2022-12-20T02:24:24.763Z,2.10
2022-12-20T02:27:18.316Z,2.10
2022-12-20T02:30:03.735Z,2.10
2022-12-20T02:32:38.355Z,2.10
2022-12-20T02:35:08.647Z,2.10
2022-12-20T02:37:38.532Z,2.10
2022-12-20T02:40:08.480Z,2.10
2022-12-20T02:42:40.857Z,2.10
2022-12-20T02:45:15.868Z,2.10
2022-12-20T02:47:50.047Z,2.10
2022-12-20T02:50:23.436Z,2.10
2022-12-20T02:52:54.593Z,2.10
2022-12-20T02:55:32.807Z,2.10
2022-12-20T02:58:07.920Z,2.10
2022-12-20T03:00:43.827Z,2.20
2022-12-20T03:03:23.403Z,2.20
2022-12-20T03:05:55.331Z,2.20
2022-12-20T03:08:26.147Z,2.20
2022-12-20T03:10:57.314Z,2.30
2022-12-20T03:13:27.993Z,2.30
2022-12-20T03:15:58.929Z,2.30
2022-12-20T03:18:28.682Z,2.20
2022-12-20T03:20:58.424Z,2.20
2022-12-20T03:23:28.425Z,2.30
2022-12-20T03:25:58.188Z,2.30
2022-12-20T03:28:27.944Z,2.30
2022-12-20T03:30:59.072Z,2.40
2022-12-20T03:33:29.013Z,2.40
2022-12-20T03:36:00.692Z,2.40
2022-12-20T03:38:32.020Z,2.40
2022-12-20T03:41:01.871Z,2.50
2022-12-20T03:43:31.603Z,2.60
2022-12-20T03:46:03.013Z,2.60
2022-12-20T03:48:32.950Z,2.60
2022-12-20T03:51:02.493Z,2.60
2022-12-20T03:53:34.630Z,2.70
2022-12-20T03:56:04.167Z,2.70
2022-12-20T03:58:34.075Z,2.70
2022-12-20T04:01:17.017Z,2.70
2022-12-20T04:03:46.631Z,2.60
2022-12-20T04:06:16.459Z,2.70
2022-12-20T04:08:46.485Z,2.60
2022-12-20T04:11:19.401Z,2.60
2022-12-20T04:13:50.682Z,2.60
2022-12-20T04:16:23.699Z,2.60
2022-12-20T04:18:53.801Z,2.60
2022-12-20T04:21:26.081Z,2.60
2022-12-20T04:23:56.029Z,2.60
2022-12-20T04:26:26.028Z,2.60
2022-12-20T04:28:56.051Z,2.50
2022-12-20T04:31:27.346Z,2.50
2022-12-20T04:33:57.188Z,2.40
2022-12-20T04:36:26.915Z,2.40
2022-12-20T04:38:56.636Z,2.40
2022-12-20T04:41:27.086Z,2.40
2022-12-20T04:43:58.463Z,2.40
2022-12-20T04:46:29.988Z,2.40
2022-12-20T04:49:00.120Z,2.30
2022-12-20T04:51:30.157Z,2.20
2022-12-20T04:54:00.913Z,2.30
2022-12-20T04:56:32.018Z,2.30
2022-12-20T04:59:02.503Z,2.20
2022-12-20T05:01:33.734Z,2.20
2022-12-20T05:04:03.608Z,2.20
2022-12-20T05:06:33.510Z,2.20
2022-12-20T05:09:03.522Z,2.10
2022-12-20T05:11:33.320Z,2.20
2022-12-20T05:14:03.070Z,2.20
2022-12-20T05:16:34.289Z,2.20
2022-12-20T05:19:04.583Z,2.30
2022-12-20T05:21:52.172Z,2.30
2022-12-20T05:24:39.711Z,2.30
2022-12-20T05:27:09.462Z,2.20
2022-12-20T05:29:39.280Z,2.30
2022-12-20T05:32:10.372Z,2.40
2022-12-20T05:34:40.171Z,2.40
2022-12-20T05:37:09.967Z,2.50
2022-12-20T05:39:39.868Z,2.50
2022-12-20T05:42:09.583Z,2.40
2022-12-20T05:44:39.495Z,2.40
2022-12-20T05:47:10.722Z,2.40
2022-12-20T05:49:40.549Z,2.40
2022-12-20T05:52:10.797Z,2.40
2022-12-20T05:54:40.410Z,2.40
2022-12-20T05:57:10.204Z,2.40
2022-12-20T05:59:40.668Z,2.40
2022-12-20T06:02:12.293Z,2.40
2022-12-20T06:04:42.170Z,2.40
2022-12-20T06:07:12.045Z,2.40
2022-12-20T06:09:41.769Z,2.40
2022-12-20T06:12:11.653Z,2.40
2022-12-20T06:14:41.399Z,2.40
2022-12-20T06:17:12.853Z,2.40
2022-12-20T06:19:42.811Z,2.40
2022-12-20T06:22:13.403Z,2.40
2022-12-20T06:24:48.316Z,2.40
2022-12-20T06:27:18.642Z,2.40
2022-12-20T06:29:52.009Z,2.40
2022-12-20T06:32:23.246Z,2.40
2022-12-20T06:34:53.926Z,2.40
2022-12-20T06:37:23.802Z,2.40
2022-12-20T06:39:53.579Z,2.40
2022-12-20T06:42:23.641Z,2.50
2022-12-20T06:44:53.572Z,2.40
2022-12-20T06:47:24.603Z,2.50
2022-12-20T06:49:54.477Z,2.50
2022-12-20T06:52:24.563Z,2.50
2022-12-20T06:54:55.582Z,2.40
2022-12-20T06:57:25.464Z,2.50
2022-12-20T06:59:55.279Z,2.50
2022-12-20T07:02:27.902Z,2.50
2022-12-20T07:04:58.508Z,2.60
2022-12-20T07:07:28.345Z,2.60
2022-12-20T07:09:59.170Z,2.60
2022-12-20T07:12:28.775Z,2.70
2022-12-20T07:14:58.547Z,2.70
2022-12-20T07:17:29.929Z,2.70
2022-12-20T07:19:59.769Z,2.70
2022-12-20T07:22:29.911Z,2.80
2022-12-20T07:24:59.848Z,2.80
2022-12-20T07:27:29.634Z,2.90
2022-12-20T07:29:59.659Z,2.90
2022-12-20T07:32:30.673Z,2.90
2022-12-20T07:35:01.411Z,3.00
2022-12-20T07:37:31.870Z,3.00
2022-12-20T07:40:01.818Z,3.00
2022-12-20T07:42:36.071Z,3.00
2022-12-20T07:45:09.106Z,3.00
2022-12-20T07:47:40.174Z,2.90
2022-12-20T07:50:09.611Z,2.90
2022-12-20T07:52:40.693Z,2.90
2022-12-20T07:55:12.142Z,2.90
2022-12-20T07:57:46.585Z,2.90
2022-12-20T08:00:18.590Z,2.80
2022-12-20T08:02:54.832Z,2.90
2022-12-20T08:05:26.011Z,2.90
2022-12-20T08:07:59.887Z,2.90
2022-12-20T08:10:30.413Z,2.90
2022-12-20T08:13:01.134Z,2.90
2022-12-20T08:15:30.127Z,2.90
2022-12-20T08:18:01.737Z,3.00
2022-12-20T08:20:31.451Z,3.00
2022-12-20T08:23:03.447Z,3.10
2022-12-20T08:25:41.176Z,3.10
2022-12-20T08:28:11.192Z,3.10
2022-12-20T08:30:41.020Z,3.20
2022-12-20T08:33:12.243Z,3.20
2022-12-20T08:35:42.065Z,3.20
2022-12-20T08:38:11.856Z,3.40
2022-12-20T08:40:42.688Z,3.40
2022-12-20T08:43:12.276Z,3.40
2022-12-20T08:45:42.041Z,3.40
2022-12-20T08:48:13.329Z,3.50
2022-12-20T08:50:45.746Z,3.60
2022-12-20T08:53:18.589Z,3.70
2022-12-20T08:55:48.111Z,3.80
2022-12-20T08:58:18.039Z,3.90
2022-12-20T09:00:48.102Z,4.00
2022-12-20T09:03:20.656Z,4.10
2022-12-20T09:05:50.450Z,4.20
2022-12-20T09:08:20.240Z,4.30
2022-12-20T09:10:50.084Z,4.40
2022-12-20T09:13:21.573Z,4.50
2022-12-20T09:15:51.601Z,4.60
2022-12-20T09:18:22.856Z,4.60
2022-12-20T09:20:52.840Z,4.60
2022-12-20T09:23:23.435Z,4.60
2022-12-20T09:25:55.480Z,4.60
2022-12-20T09:28:25.419Z,4.60
2022-12-20T09:30:58.665Z,4.50
2022-12-20T09:33:32.294Z,4.50
2022-12-20T09:36:03.778Z,4.50
2022-12-20T09:38:34.092Z,4.40
2022-12-20T09:41:11.334Z,4.40
2022-12-20T09:43:41.716Z,4.40
2022-12-20T09:46:16.556Z,4.40
2022-12-20T09:48:48.739Z,4.40
2022-12-20T09:51:32.629Z,4.40
2022-12-20T09:54:13.524Z,4.50
2022-12-20T09:56:50.020Z,4.50
2022-12-20T09:59:22.433Z,4.60
2022-12-20T10:01:58.255Z,4.60
2022-12-20T10:04:34.745Z,4.60
2022-12-20T10:07:15.528Z,4.70
2022-12-20T10:10:01.938Z,4.80
2022-12-20T10:12:43.036Z,4.80
2022-12-20T10:15:20.235Z,4.80
2022-12-20T10:17:59.224Z,4.90
2022-12-20T10:20:40.808Z,5.00
2022-12-20T10:23:15.290Z,4.90
2022-12-20T10:25:46.065Z,4.90
2022-12-20T10:28:18.046Z,4.90
2022-12-20T10:30:47.640Z,4.90
2022-12-20T10:33:21.639Z,4.90
2022-12-20T10:35:53.335Z,4.80
2022-12-20T10:38:24.025Z,4.80
2022-12-20T10:41:21.097Z,4.80
2022-12-20T10:43:56.266Z,4.80
2022-12-20T10:46:35.757Z,4.80
2022-12-20T10:49:24.233Z,4.80
2022-12-20T10:52:00.600Z,4.80
2022-12-20T10:54:35.761Z,4.80
2022-12-20T10:57:17.925Z,4.80
2022-12-20T10:59:49.875Z,4.80
2022-12-20T11:02:33.200Z,4.70
2022-12-20T11:05:23.217Z,4.80
2022-12-20T11:10:48.745Z,4.80
2022-12-20T11:13:29.677Z,4.80
2022-12-20T11:16:01.589Z,4.80
2022-12-20T11:18:41.331Z,4.90
2022-12-20T11:21:25.906Z,5.00
2022-12-20T11:24:05.953Z,5.00
2022-12-20T11:26:59.810Z,5.00
2022-12-20T11:29:44.619Z,5.10
2022-12-20T11:32:27.709Z,5.20
2022-12-20T11:35:06.598Z,5.20
2022-12-20T11:37:46.763Z,5.20
2022-12-20T11:40:30.382Z,5.20
2022-12-20T11:43:15.532Z,5.20
2022-12-20T11:45:55.157Z,5.30
2022-12-20T11:48:56.188Z,5.30
2022-12-20T11:51:31.057Z,5.30
2022-12-20T11:54:06.727Z,5.50
2022-12-20T11:56:44.590Z,5.50
2022-12-20T11:59:19.812Z,5.50
2022-12-20T12:01:53.756Z,5.60
2022-12-20T12:04:26.651Z,5.60
2022-12-20T12:07:02.997Z,5.70
2022-12-20T12:09:37.815Z,5.70
2022-12-20T12:12:13.684Z,5.80
2022-12-20T12:14:51.360Z,5.80
2022-12-20T12:17:26.437Z,5.80
2022-12-20T12:19:58.123Z,5.80
2022-12-20T12:22:35.337Z,5.80
2022-12-20T12:25:12.656Z,5.70
2022-12-20T12:27:43.975Z,5.70
2022-12-20T12:30:18.527Z,5.70
2022-12-20T12:32:53.700Z,5.70
2022-12-20T12:35:46.861Z,5.60
2022-12-20T12:38:41.930Z,5.50
2022-12-20T12:41:32.283Z,5.50
2022-12-20T12:44:23.506Z,5.50
2022-12-20T12:47:00.308Z,5.50
2022-12-20T12:49:31.887Z,5.50
2022-12-20T12:52:05.180Z,5.60
2022-12-20T12:54:43.541Z,5.60
2022-12-20T12:57:16.316Z,5.50
2022-12-20T12:59:49.853Z,5.40
2022-12-20T13:02:39.005Z,5.30
2022-12-20T13:05:33.694Z,5.30
2022-12-20T13:08:05.126Z,5.30
2022-12-20T13:11:02.495Z,5.20
2022-12-20T13:13:34.846Z,5.10
2022-12-20T13:17:09.562Z,5.00
2022-12-20T13:19:35.016Z,5.00
2022-12-20T13:22:21.848Z,5.00
2022-12-20T13:24:56.964Z,5.00
2022-12-20T13:27:28.379Z,4.90
2022-12-20T13:30:28.882Z,4.90
2022-12-20T13:33:27.915Z,4.80
2022-12-20T13:36:05.965Z,4.80
2022-12-20T13:38:54.029Z,4.70
2022-12-20T13:41:45.601Z,4.70
2022-12-20T13:44:37.335Z,4.70
2022-12-20T13:47:15.444Z,4.70
2022-12-20T13:49:47.515Z,4.70
2022-12-20T13:52:29.589Z,4.80
2022-12-20T13:55:02.949Z,4.80
2022-12-20T13:57:41.843Z,4.80
2022-12-20T14:00:18.498Z,4.90
2022-12-20T14:02:48.736Z,4.90
2022-12-20T14:05:26.288Z,4.90
2022-12-20T14:08:00.099Z,4.90
2022-12-20T14:10:32.585Z,4.90
2022-12-20T14:13:02.314Z,4.90
2022-12-20T14:15:34.351Z,4.90
2022-12-20T14:18:18.642Z,4.90
2022-12-20T14:20:51.890Z,5.00
2022-12-20T14:23:24.481Z,4.90
2022-12-20T14:25:57.708Z,5.00
2022-12-20T14:28:37.848Z,5.00
2022-12-20T14:31:23.933Z,5.00
2022-12-20T14:34:02.063Z,5.10
2022-12-20T14:36:34.328Z,5.00
2022-12-20T14:39:22.683Z,4.90
2022-12-20T14:41:58.786Z,4.90
2022-12-20T14:44:30.196Z,4.90
2022-12-20T14:47:01.872Z,4.90
2022-12-20T14:49:33.916Z,4.90
2022-12-20T14:52:17.899Z,4.80
2022-12-20T14:55:08.175Z,4.80
2022-12-20T14:57:45.541Z,4.80
2022-12-20T15:00:16.950Z,4.80
2022-12-20T15:02:51.853Z,4.80
2022-12-20T15:05:53.300Z,4.80
2022-12-20T15:08:27.173Z,4.80
2022-12-20T15:11:01.038Z,4.80
2022-12-20T15:13:34.562Z,4.80
2022-12-20T15:16:06.752Z,4.70
2022-12-20T15:18:36.628Z,4.80
2022-12-20T15:21:15.906Z,4.80
2022-12-20T15:23:51.470Z,4.70
2022-12-20T15:26:23.774Z,4.80
2022-12-20T15:28:54.195Z,4.70
2022-12-20T15:31:32.583Z,4.70
2022-12-20T15:34:04.858Z,4.60
2022-12-20T15:36:34.725Z,4.60
2022-12-20T15:39:14.326Z,4.60
2022-12-20T15:41:48.116Z,4.60
2022-12-20T15:44:21.528Z,4.60
2022-12-20T15:46:51.875Z,4.60
2022-12-20T15:49:23.819Z,4.60
2022-12-20T15:51:55.231Z,4.60
2022-12-20T15:54:29.469Z,4.60
2022-12-20T15:57:00.363Z,4.50
2022-12-20T15:59:59.039Z,4.50
2022-12-20T16:02:24.232Z,4.50
2022-12-20T16:04:55.177Z,4.60
2022-12-20T16:07:25.334Z,4.60
2022-12-20T16:09:56.593Z,4.50
2022-12-20T16:12:30.550Z,4.50
2022-12-20T16:15:00.539Z,4.50
2022-12-20T16:17:30.112Z,4.50
2022-12-20T16:19:59.865Z,4.40
2022-12-20T16:22:29.648Z,4.40
2022-12-20T16:25:01.630Z,4.40
2022-12-20T16:27:31.543Z,4.50
2022-12-20T16:30:02.709Z,4.50
2022-12-20T16:32:32.706Z,4.40
2022-12-20T16:35:02.418Z,4.50
2022-12-20T16:37:38.614Z,4.50
2022-12-20T16:40:15.396Z,4.50
2022-12-20T16:42:45.027Z,4.50
2022-12-20T16:45:18.568Z,4.40
2022-12-20T16:47:50.091Z,4.40
2022-12-20T16:50:20.985Z,4.50
2022-12-20T16:52:51.388Z,4.50
2022-12-20T16:55:26.101Z,4.50
2022-12-20T16:57:56.007Z,4.50
2022-12-20T17:00:27.889Z,4.50
2022-12-20T17:02:59.236Z,4.40
2022-12-20T17:05:31.487Z,4.40
2022-12-20T17:08:01.596Z,4.40
2022-12-20T17:10:32.747Z,4.40
2022-12-20T17:13:02.933Z,4.40
2022-12-20T17:15:33.948Z,4.40
2022-12-20T17:18:03.748Z,4.30
2022-12-20T17:20:36.931Z,4.40
2022-12-20T17:25:58.298Z,4.30
2022-12-20T17:28:28.114Z,4.30
2022-12-20T17:31:05.720Z,4.40
2022-12-20T17:33:37.874Z,4.40
2022-12-20T17:36:08.642Z,4.40
2022-12-20T17:38:38.526Z,4.40
2022-12-20T17:41:19.566Z,4.50
2022-12-20T17:43:49.747Z,4.40
2022-12-20T17:46:19.988Z,4.40
2022-12-20T17:48:50.355Z,4.40
2022-12-20T17:51:22.058Z,4.50
2022-12-20T17:53:55.145Z,4.50
2022-12-20T17:56:28.391Z,4.50
2022-12-20T17:58:59.297Z,4.50
2022-12-20T18:01:30.886Z,4.60
2022-12-20T18:04:04.080Z,4.60
2022-12-20T18:06:37.433Z,4.50
2022-12-20T18:09:09.697Z,4.50
2022-12-20T18:11:40.642Z,4.50
2022-12-20T18:14:10.704Z,4.50
2022-12-20T18:16:41.000Z,4.40
2022-12-20T18:19:15.968Z,4.40
2022-12-20T18:21:46.116Z,4.40
2022-12-20T18:24:17.458Z,4.40
2022-12-20T18:26:48.457Z,4.40
2022-12-20T18:29:18.331Z,4.30
2022-12-20T18:31:48.213Z,4.40
2022-12-20T18:34:17.879Z,4.40
2022-12-20T18:36:47.756Z,4.30
2022-12-20T18:39:17.640Z,4.40
2022-12-20T18:41:48.800Z,4.40
2022-12-20T18:44:18.605Z,4.50
2022-12-20T18:46:48.571Z,4.40
2022-12-20T18:49:18.440Z,4.30
2022-12-20T18:51:48.262Z,4.50
2022-12-20T18:54:18.070Z,4.50
2022-12-20T18:56:50.093Z,4.50
2022-12-20T18:59:21.151Z,4.50
2022-12-20T19:01:52.639Z,4.50
2022-12-20T19:04:24.841Z,4.40
2022-12-20T19:06:54.882Z,4.40
2022-12-20T19:09:24.734Z,4.40
2022-12-20T19:11:57.689Z,4.40
2022-12-20T19:14:28.082Z,4.40
2022-12-20T19:16:58.033Z,4.40
2022-12-20T19:19:27.814Z,4.30
2022-12-20T19:21:57.715Z,4.30
2022-12-20T19:24:27.596Z,4.30
2022-12-20T19:26:58.773Z,4.30
2022-12-20T19:29:28.642Z,4.30
2022-12-20T19:31:58.542Z,4.30
2022-12-20T19:34:28.410Z,4.30
2022-12-20T19:36:58.348Z,4.40
2022-12-20T19:39:26.341Z,4.40
2022-12-20T19:42:22.533Z,4.40
2022-12-20T19:44:45.441Z,4.40
2022-12-20T19:47:15.284Z,4.30
2022-12-20T19:49:45.303Z,4.40
2022-12-20T19:52:15.879Z,4.30
2022-12-20T19:54:45.753Z,4.40
2022-12-20T19:57:17.078Z,4.40
2022-12-20T19:59:52.178Z,4.40
2022-12-20T20:02:25.725Z,4.40
2022-12-20T20:04:55.562Z,4.30
2022-12-20T20:07:26.813Z,4.30
2022-12-20T20:09:56.781Z,4.30
2022-12-20T20:12:28.104Z,4.30
2022-12-20T20:14:57.969Z,4.30
2022-12-20T20:17:27.960Z,4.40
2022-12-20T20:19:57.623Z,4.30
2022-12-20T20:22:27.504Z,4.40
2022-12-20T20:24:57.463Z,4.30
2022-12-20T20:27:28.631Z,4.20
2022-12-20T20:29:58.349Z,4.20
2022-12-20T20:32:28.106Z,4.10
2022-12-20T20:34:57.978Z,4.20
2022-12-20T20:37:28.094Z,4.20
2022-12-20T20:39:57.854Z,4.20
2022-12-20T20:42:29.189Z,4.20
2022-12-20T20:44:59.112Z,4.20
2022-12-20T20:47:29.066Z,4.20
2022-12-20T20:49:58.891Z,4.10
2022-12-20T20:52:28.702Z,4.10
2022-12-20T20:54:58.756Z,4.10
2022-12-20T20:57:30.463Z,4.20
2022-12-20T21:00:00.410Z,4.20
2022-12-20T21:02:30.173Z,4.10
2022-12-20T21:05:52.031Z,4.20
2022-12-20T21:07:49.462Z,4.30
2022-12-20T21:10:19.551Z,4.30
2022-12-20T21:12:50.728Z,4.20
2022-12-20T21:15:23.189Z,4.30
2022-12-20T21:17:53.144Z,4.30
2022-12-20T21:20:26.230Z,4.40
2022-12-20T21:22:57.306Z,4.40
2022-12-20T21:25:26.921Z,4.30
2022-12-20T21:27:58.852Z,4.30
2022-12-20T21:30:28.872Z,4.30
2022-12-20T21:32:58.819Z,4.10
2022-12-20T21:35:28.537Z,4.20
2022-12-20T21:37:58.127Z,4.30
2022-12-20T21:40:27.956Z,4.30
2022-12-20T21:42:59.154Z,4.30
2022-12-20T21:45:28.967Z,4.30
2022-12-20T21:48:03.052Z,4.40
2022-12-20T21:50:33.284Z,4.40
2022-12-20T21:53:03.053Z,4.40
2022-12-20T21:55:32.868Z,4.40
2022-12-20T21:58:03.785Z,4.40
2022-12-20T22:00:33.659Z,4.40
2022-12-20T22:03:03.400Z,4.50
2022-12-20T22:05:33.043Z,4.40
2022-12-20T22:08:02.842Z,4.40
2022-12-20T22:10:32.574Z,4.40
2022-12-20T22:13:03.706Z,4.40
2022-12-20T22:15:34.513Z,4.40
2022-12-20T22:18:04.491Z,4.50
2022-12-20T22:20:34.420Z,4.50
2022-12-20T22:23:04.362Z,4.50
2022-12-20T22:25:36.427Z,4.50
2022-12-20T22:28:07.780Z,4.50
2022-12-20T22:30:40.942Z,4.60
2022-12-20T22:33:10.583Z,4.60
2022-12-20T22:35:41.146Z,4.60
2022-12-20T22:38:10.826Z,4.60
2022-12-20T22:40:40.538Z,4.60
2022-12-20T22:43:11.466Z,4.60
2022-12-20T22:45:41.590Z,4.70
2022-12-20T22:48:11.565Z,4.70
2022-12-20T22:50:41.326Z,4.70
2022-12-20T22:53:11.145Z,4.70
2022-12-20T22:55:41.527Z,4.60
2022-12-20T22:58:12.669Z,4.60
2022-12-20T23:00:42.594Z,4.60
2022-12-20T23:03:12.669Z,4.60
2022-12-20T23:05:42.481Z,4.70
2022-12-20T23:08:12.437Z,4.80
2022-12-20T23:11:00.497Z,4.80
2022-12-20T23:13:49.371Z,4.80
2022-12-20T23:16:19.498Z,4.80
2022-12-20T23:18:49.262Z,4.80
2022-12-20T23:21:37.058Z,4.80
2022-12-20T23:24:07.851Z,4.90
2022-12-20T23:26:38.771Z,4.90
2022-12-20T23:29:11.543Z,4.90
2022-12-20T23:31:41.250Z,4.90
2022-12-20T23:34:10.918Z,5.30
2022-12-20T23:36:40.821Z,5.50
2022-12-20T23:39:10.726Z,5.50
2022-12-20T23:41:40.470Z,5.50
2022-12-20T23:44:11.610Z,6.10
2022-12-20T23:46:41.321Z,6.20
2022-12-20T23:49:11.058Z,6.20
2022-12-20T23:51:40.849Z,6.20
2022-12-20T23:54:11.103Z,6.50
2022-12-20T23:56:41.095Z,6.70
2022-12-20T23:59:12.250Z,6.90
